Time;durP1;ratioP1;P1;durP2;ratioP2;P2;SDS_P1;SDS_P2;PMS_P1;PMS_P2;Temp;Humidity;BMP_temperature;BMP_pressure;BME280_temperature;BME280_humidity;BME280_pressure;Samples;Min_cycle;Max_cycle;Signal;HPM_P1;HPM_P2
2023/12/08 00:00:09;;;;;;;21.38;8.70;;;4.10;99.90;;;;;;5115105;28;20489;-67
2023/12/08 00:02:35;;;;;;;21.63;9.90;;;4.10;99.90;;;;;;5115249;28;20032;-67
2023/12/08 00:05:00;;;;;;;22.15;9.85;;;4.20;99.90;;;;;;5115216;28;20020;-67
2023/12/08 00:07:26;;;;;;;23.02;9.55;;;4.20;99.90;;;;;;5115087;28;20493;-67
2023/12/08 00:09:51;;;;;;;20.42;9.32;;;4.10;99.90;;;;;;5115072;28;20039;-67
2023/12/08 00:12:17;;;;;;;24.58;9.88;;;4.20;99.90;;;;;;5115042;28;20074;-67
2023/12/08 00:14:44;;;;;;;19.25;8.85;;;4.10;99.90;;;;;;5114980;28;20035;-68
2023/12/08 00:17:09;;;;;;;21.73;9.52;;;4.20;99.90;;;;;;5114989;28;20043;-67
2023/12/08 00:19:35;;;;;;;20.50;9.20;;;4.20;99.90;;;;;;5114964;28;20048;-67
2023/12/08 00:22:00;;;;;;;19.75;8.02;;;4.20;99.90;;;;;;5114839;28;20065;-67
2023/12/08 00:24:26;;;;;;;21.38;8.68;;;4.20;99.90;;;;;;5114798;28;20057;-67
2023/12/08 00:26:51;;;;;;;21.08;9.32;;;4.20;99.90;;;;;;5114865;28;20062;-67
2023/12/08 00:29:19;;;;;;;17.52;8.57;;;4.20;99.90;;;;;;5114254;28;20035;-67
2023/12/08 00:31:45;;;;;;;21.33;9.38;;;4.10;99.90;;;;;;5114622;28;20024;-67
2023/12/08 00:34:11;;;;;;;15.88;7.75;;;4.10;99.90;;;;;;5114419;28;20048;-67
2023/12/08 00:36:36;;;;;;;21.35;9.15;;;4.20;99.90;;;;;;5114415;28;20043;-67
2023/12/08 00:39:02;;;;;;;21.73;9.32;;;4.10;99.90;;;;;;5114578;28;20051;-67
2023/12/08 00:41:28;;;;;;;22.55;9.73;;;4.10;99.90;;;;;;5114577;28;20024;-67
2023/12/08 00:43:53;;;;;;;19.00;9.07;;;4.20;99.90;;;;;;5114433;28;20063;-68
2023/12/08 00:46:19;;;;;;;17.60;7.97;;;4.10;99.90;;;;;;5114448;28;20028;-67
2023/12/08 00:48:45;;;;;;;16.60;8.57;;;4.10;99.90;;;;;;5114251;28;20087;-67
2023/12/08 00:51:13;;;;;;;20.60;9.77;;;4.10;99.90;;;;;;5114221;28;20103;-67
2023/12/08 00:53:41;;;;;;;19.13;8.45;;;4.20;99.90;;;;;;5114228;28;20032;-67
2023/12/08 00:56:07;;;;;;;17.63;8.18;;;4.10;99.90;;;;;;5114226;28;20031;-67
2023/12/08 00:58:33;;;;;;;20.95;8.80;;;4.20;99.90;;;;;;5114138;28;20111;-67
2023/12/08 01:00:59;;;;;;;19.95;8.18;;;4.20;99.90;;;;;;5113875;28;20035;-67
2023/12/08 01:03:24;;;;;;;18.42;8.05;;;4.20;99.90;;;;;;5114071;28;20060;-67
2023/12/08 01:05:50;;;;;;;17.30;7.80;;;4.20;99.90;;;;;;5113912;28;20032;-67
2023/12/08 01:08:15;;;;;;;19.45;8.10;;;4.20;99.90;;;;;;5113879;28;20039;-67
2023/12/08 01:10:41;;;;;;;18.92;8.70;;;4.20;99.90;;;;;;5113950;28;20032;-67
2023/12/08 01:13:07;;;;;;;17.85;8.27;;;4.20;99.90;;;;;;5113910;28;20024;-67
2023/12/08 01:15:33;;;;;;;17.67;8.10;;;4.20;99.90;;;;;;5112758;28;20020;-67
2023/12/08 01:17:59;;;;;;;15.75;8.15;;;4.20;99.90;;;;;;5113733;28;20040;-67
2023/12/08 01:20:24;;;;;;;15.13;7.93;;;4.20;99.90;;;;;;5113592;28;20035;-67
2023/12/08 01:22:51;;;;;;;15.32;8.25;;;4.20;99.90;;;;;;5113668;28;20028;-68
2023/12/08 01:25:16;;;;;;;17.38;8.23;;;4.20;99.90;;;;;;5113700;28;20065;-67
2023/12/08 01:27:42;;;;;;;16.27;8.07;;;4.20;99.90;;;;;;5113575;28;20036;-67
2023/12/08 01:30:08;;;;;;;17.85;7.55;;;4.20;99.90;;;;;;5113258;28;20040;-67
2023/12/08 01:32:33;;;;;;;18.10;8.07;;;4.20;99.90;;;;;;5113457;28;20024;-67
2023/12/08 01:34:59;;;;;;;20.38;8.77;;;4.20;99.90;;;;;;5113119;28;20075;-67
2023/12/08 01:37:25;;;;;;;20.83;8.68;;;4.20;99.90;;;;;;5113471;28;20028;-67
2023/12/08 01:39:50;;;;;;;18.50;8.77;;;4.30;99.90;;;;;;5113432;28;20121;-67
2023/12/08 01:42:16;;;;;;;20.98;8.80;;;4.30;99.90;;;;;;5112646;28;20032;-67
2023/12/08 01:44:41;;;;;;;21.73;9.13;;;4.30;99.90;;;;;;5113274;28;20032;-67
2023/12/08 01:47:07;;;;;;;16.67;7.78;;;4.30;99.90;;;;;;5113225;28;20020;-67
2023/12/08 01:49:37;;;;;;;17.23;8.23;;;4.30;99.90;;;;;;5112917;28;20031;-67
2023/12/08 01:52:04;;;;;;;20.15;8.32;;;4.30;99.90;;;;;;5113150;28;20020;-67
2023/12/08 01:54:30;;;;;;;18.05;7.95;;;4.30;99.90;;;;;;5113112;28;20025;-67
2023/12/08 01:56:56;;;;;;;17.30;8.63;;;4.40;99.90;;;;;;5113061;28;20035;-67
2023/12/08 01:59:22;;;;;;;20.35;8.02;;;4.40;99.90;;;;;;5112831;28;20047;-68
2023/12/08 02:01:48;;;;;;;15.77;7.50;;;4.40;99.90;;;;;;5112029;28;20050;-67
2023/12/08 02:04:14;;;;;;;19.23;7.88;;;4.40;99.90;;;;;;5112864;28;20032;-67
2023/12/08 02:06:40;;;;;;;16.73;8.85;;;4.40;99.90;;;;;;5113007;28;20028;-67
2023/12/08 02:09:07;;;;;;;20.02;8.40;;;4.40;99.90;;;;;;5112790;28;20039;-67
2023/12/08 02:11:34;;;;;;;19.20;8.23;;;4.30;99.90;;;;;;5112955;28;20027;-67
2023/12/08 02:14:01;;;;;;;19.15;8.20;;;4.30;99.90;;;;;;5112775;28;20077;-67
2023/12/08 02:16:52;;;;;;;15.82;8.13;;;4.30;99.90;;;;;;5112739;28;20057;-67
2023/12/08 02:19:18;;;;;;;19.52;8.35;;;4.30;99.90;;;;;;5112690;28;20028;-67
2023/12/08 02:21:44;;;;;;;23.85;8.65;;;4.30;99.90;;;;;;5112614;28;20024;-67
2023/12/08 02:24:09;;;;;;;17.35;7.95;;;4.30;99.90;;;;;;5112694;28;20087;-67
2023/12/08 02:26:35;;;;;;;19.25;8.80;;;4.30;99.90;;;;;;5112655;28;20024;-67
2023/12/08 02:29:01;;;;;;;17.67;8.65;;;4.30;99.90;;;;;;5112274;28;20542;-67
2023/12/08 02:31:39;;;;;;;15.02;7.80;;;4.30;99.90;;;;;;5111522;28;20493;-67
2023/12/08 02:34:06;;;;;;;20.33;8.27;;;4.30;99.90;;;;;;5112471;28;20047;-67
2023/12/08 02:36:34;;;;;;;16.10;8.05;;;4.30;99.90;;;;;;5112534;28;20032;-67
2023/12/08 02:39:00;;;;;;;19.50;7.72;;;4.30;99.90;;;;;;5112501;28;20040;-67
2023/12/08 02:41:26;;;;;;;16.77;8.63;;;4.20;99.90;;;;;;5112582;28;20025;-67
2023/12/08 02:43:52;;;;;;;19.00;8.10;;;4.30;99.90;;;;;;5112469;28;20028;-67
2023/12/08 02:46:17;;;;;;;18.63;8.18;;;4.30;99.90;;;;;;5112603;28;20039;-67
2023/12/08 02:48:43;;;;;;;15.82;7.95;;;4.30;99.90;;;;;;5112461;28;20024;-67
2023/12/08 02:51:08;;;;;;;17.42;8.18;;;4.30;99.90;;;;;;5112473;28;20059;-67
2023/12/08 02:53:34;;;;;;;18.50;7.78;;;4.30;99.90;;;;;;5114425;28;20020;-67
2023/12/08 02:56:00;;;;;;;16.92;8.13;;;4.30;99.90;;;;;;5116481;28;20035;-67
2023/12/08 02:58:25;;;;;;;17.38;7.95;;;4.30;99.90;;;;;;5116437;28;20035;-67
2023/12/08 03:00:51;;;;;;;19.85;8.45;;;4.30;99.90;;;;;;5116267;28;20020;-67
2023/12/08 03:03:16;;;;;;;18.90;8.38;;;4.20;99.90;;;;;;5116487;28;20028;-67
2023/12/08 03:05:42;;;;;;;21.60;9.00;;;4.20;99.90;;;;;;5116383;28;20052;-67
2023/12/08 03:08:08;;;;;;;17.55;8.00;;;4.20;99.90;;;;;;5115317;28;20032;-67
2023/12/08 03:10:33;;;;;;;20.85;8.55;;;4.30;99.90;;;;;;5116205;28;20039;-67
2023/12/08 03:12:59;;;;;;;17.75;7.97;;;4.20;99.90;;;;;;5116193;28;20028;-67
2023/12/08 03:15:25;;;;;;;17.75;7.72;;;4.30;99.90;;;;;;5116222;28;20021;-67
2023/12/08 03:17:51;;;;;;;18.33;8.43;;;4.20;99.90;;;;;;5116130;28;20035;-67
2023/12/08 03:20:17;;;;;;;17.48;7.97;;;4.20;99.90;;;;;;5116012;28;20027;-67
2023/12/08 03:22:42;;;;;;;18.05;7.63;;;4.30;99.90;;;;;;5116064;28;20036;-67
2023/12/08 03:25:08;;;;;;;15.77;8.02;;;4.30;99.90;;;;;;5116004;28;20032;-67
2023/12/08 03:27:33;;;;;;;20.77;8.85;;;4.30;99.90;;;;;;5115911;28;20032;-67
2023/12/08 03:29:59;;;;;;;20.70;9.00;;;4.20;99.90;;;;;;5115561;28;20032;-67
2023/12/08 03:32:25;;;;;;;17.90;9.20;;;4.30;99.90;;;;;;5115821;28;20034;-67
2023/12/08 03:34:50;;;;;;;23.35;9.30;;;4.30;99.90;;;;;;5115608;28;20048;-67
2023/12/08 03:37:16;;;;;;;20.38;8.93;;;4.30;99.90;;;;;;5115799;28;20056;-67
2023/12/08 03:39:43;;;;;;;19.02;8.07;;;4.30;99.90;;;;;;5115707;28;20096;-67
2023/12/08 03:42:09;;;;;;;20.58;8.93;;;4.30;99.90;;;;;;5115683;28;20121;-67
2023/12/08 03:44:34;;;;;;;20.15;7.97;;;4.30;99.90;;;;;;5115661;28;20031;-67
2023/12/08 03:47:00;;;;;;;19.90;9.00;;;4.30;99.90;;;;;;5115749;28;20039;-67
2023/12/08 03:49:25;;;;;;;17.42;7.68;;;4.30;99.90;;;;;;5115503;28;20024;-67
2023/12/08 03:51:51;;;;;;;19.23;9.02;;;4.30;99.90;;;;;;5115555;28;20533;-67
2023/12/08 03:54:17;;;;;;;19.65;8.35;;;4.30;99.90;;;;;;5115423;28;20050;-67
2023/12/08 03:56:42;;;;;;;19.33;8.18;;;4.30;99.90;;;;;;5115281;28;20028;-67
2023/12/08 03:59:08;;;;;;;19.73;9.55;;;4.30;99.90;;;;;;5115248;28;20689;-67
2023/12/08 04:01:33;;;;;;;18.25;8.57;;;4.30;99.90;;;;;;5115311;28;20032;-67
2023/12/08 04:03:59;;;;;;;17.92;8.68;;;4.30;99.90;;;;;;5115065;28;20035;-67
2023/12/08 04:06:24;;;;;;;17.48;8.85;;;4.30;99.90;;;;;;5114667;28;20039;-67
2023/12/08 04:08:50;;;;;;;16.58;8.63;;;4.30;99.90;;;;;;5115014;28;20024;-67
2023/12/08 04:11:16;;;;;;;26.92;9.18;;;4.30;99.90;;;;;;5114997;28;20470;-67
2023/12/08 04:13:41;;;;;;;21.13;8.73;;;4.20;99.90;;;;;;5114947;28;20017;-67
2023/12/08 04:16:08;;;;;;;19.20;8.85;;;4.30;99.90;;;;;;5115008;28;20502;-67
2023/12/08 04:18:35;;;;;;;21.20;9.10;;;4.30;99.90;;;;;;5114978;28;20115;-67
2023/12/08 04:21:01;;;;;;;20.00;9.38;;;4.30;99.90;;;;;;5114824;28;20027;-67
2023/12/08 04:23:26;;;;;;;17.85;8.68;;;4.20;99.90;;;;;;5114904;28;20025;-67
2023/12/08 04:25:52;;;;;;;19.13;9.05;;;4.30;99.90;;;;;;5114784;28;20113;-67
2023/12/08 04:28:17;;;;;;;20.58;8.32;;;4.30;99.90;;;;;;5114726;28;20024;-67
2023/12/08 04:30:43;;;;;;;19.20;9.07;;;4.20;99.90;;;;;;5114599;28;20025;-67
2023/12/08 04:33:09;;;;;;;20.05;8.63;;;4.20;99.90;;;;;;5114584;28;20025;-67
2023/12/08 04:35:34;;;;;;;20.70;9.63;;;4.20;99.90;;;;;;5114407;28;20490;-67
2023/12/08 04:38:01;;;;;;;19.70;8.35;;;4.20;99.90;;;;;;5114580;28;20028;-67
2023/12/08 04:40:26;;;;;;;19.55;9.07;;;4.20;99.90;;;;;;5114486;28;20028;-67
2023/12/08 04:42:52;;;;;;;19.83;8.93;;;4.30;99.90;;;;;;5114519;28;20031;-68
2023/12/08 04:45:18;;;;;;;18.02;9.05;;;4.20;99.90;;;;;;5114493;28;20087;-67
2023/12/08 04:47:43;;;;;;;24.45;9.45;;;4.20;99.90;;;;;;5114419;28;20058;-67
2023/12/08 04:50:09;;;;;;;21.35;9.13;;;4.30;99.90;;;;;;5114278;28;20028;-67
2023/12/08 04:52:34;;;;;;;19.33;8.07;;;4.30;99.90;;;;;;5114306;28;20024;-67
2023/12/08 04:55:04;;;;;;;21.40;9.10;;;4.30;99.90;;;;;;5114258;28;20025;-67
2023/12/08 04:57:30;;;;;;;20.70;9.65;;;4.30;99.90;;;;;;5113206;28;20024;-67
2023/12/08 04:59:56;;;;;;;16.25;8.23;;;4.30;99.90;;;;;;5114035;28;20524;-67
2023/12/08 05:02:22;;;;;;;21.52;8.55;;;4.30;99.90;;;;;;5113044;28;20040;-67
2023/12/08 05:04:47;;;;;;;20.02;9.43;;;4.30;99.90;;;;;;5114022;28;20048;-67
2023/12/08 05:07:13;;;;;;;17.23;7.78;;;4.30;99.90;;;;;;5114051;28;20043;-67
2023/12/08 05:09:38;;;;;;;18.58;8.52;;;4.30;99.90;;;;;;5113761;28;20035;-67
2023/12/08 05:12:04;;;;;;;22.60;9.77;;;4.30;99.90;;;;;;5113953;28;20056;-67
2023/12/08 05:14:30;;;;;;;23.92;8.52;;;4.30;99.90;;;;;;5113877;28;20123;-67
2023/12/08 05:16:55;;;;;;;17.13;8.75;;;4.30;99.90;;;;;;5112822;28;20068;-67
2023/12/08 05:19:22;;;;;;;16.08;7.80;;;4.30;99.90;;;;;;5113791;28;20036;-67
2023/12/08 05:21:47;;;;;;;15.52;7.90;;;4.30;99.90;;;;;;5113643;28;20079;-67
2023/12/08 05:24:13;;;;;;;20.60;9.00;;;4.40;99.90;;;;;;5112684;28;20036;-67
2023/12/08 05:26:38;;;;;;;18.42;8.10;;;4.40;99.90;;;;;;5113663;28;20035;-67
2023/12/08 05:29:04;;;;;;;20.80;9.00;;;4.40;99.90;;;;;;5113417;28;20040;-67
2023/12/08 05:31:30;;;;;;;18.10;8.32;;;4.30;99.90;;;;;;5113644;28;20103;-67
2023/12/08 05:33:55;;;;;;;22.15;9.20;;;4.30;99.90;;;;;;5112284;28;20104;-67
2023/12/08 05:36:21;;;;;;;16.67;8.20;;;4.40;99.90;;;;;;5113368;28;20063;-67
2023/12/08 05:38:47;;;;;;;16.00;7.82;;;4.40;99.90;;;;;;5113407;28;20043;-67
2023/12/08 05:41:12;;;;;;;18.00;8.98;;;4.40;99.90;;;;;;5113404;28;20028;-67
2023/12/08 05:43:38;;;;;;;19.98;8.90;;;4.40;99.90;;;;;;5113389;28;20024;-67
2023/12/08 05:46:04;;;;;;;17.13;8.18;;;4.40;99.90;;;;;;5112347;28;20035;-67
2023/12/08 05:48:29;;;;;;;16.77;7.20;;;4.40;99.90;;;;;;5113212;28;20020;-67
2023/12/08 05:50:55;;;;;;;18.33;8.45;;;4.40;99.90;;;;;;5112233;28;20045;-67
2023/12/08 05:53:21;;;;;;;20.63;8.73;;;4.40;99.90;;;;;;5113093;28;20039;-67
2023/12/08 05:55:46;;;;;;;16.80;8.23;;;4.40;99.90;;;;;;5113109;28;20031;-67
2023/12/08 05:58:12;;;;;;;17.80;7.63;;;4.50;99.90;;;;;;5113139;28;20032;-67
2023/12/08 06:00:37;;;;;;;18.17;7.97;;;4.50;99.90;;;;;;5112901;28;20035;-67
2023/12/08 06:03:03;;;;;;;18.40;8.15;;;4.50;99.90;;;;;;5112991;28;20092;-67
2023/12/08 06:05:29;;;;;;;18.80;8.40;;;4.50;99.90;;;;;;5112976;28;20028;-67
2023/12/08 06:07:54;;;;;;;21.65;7.95;;;4.50;99.90;;;;;;5112773;28;20032;-67
2023/12/08 06:10:21;;;;;;;21.08;8.93;;;4.50;99.90;;;;;;5112848;28;20035;-67
2023/12/08 06:12:47;;;;;;;16.17;8.20;;;4.50;99.90;;;;;;5112852;28;20291;-67
2023/12/08 06:15:13;;;;;;;14.50;7.32;;;4.50;99.90;;;;;;5112922;28;20090;-67
2023/12/08 06:17:38;;;;;;;19.02;8.15;;;4.50;99.90;;;;;;5112822;28;20462;-67
2023/12/08 06:20:04;;;;;;;19.45;8.95;;;4.60;99.90;;;;;;5095601;28;20048;-67
2023/12/08 06:22:31;;;;;;;17.80;7.93;;;4.50;99.90;;;;;;5092385;28;20048;-67
2023/12/08 06:24:56;;;;;;;19.00;7.95;;;4.60;99.90;;;;;;5092476;28;20025;-67
2023/12/08 06:27:22;;;;;;;18.50;7.88;;;4.60;99.90;;;;;;5092136;28;20048;-67
2023/12/08 06:29:50;;;;;;;19.65;7.75;;;4.60;99.90;;;;;;5092156;28;20076;-67
2023/12/08 06:32:16;;;;;;;18.90;8.23;;;4.60;99.90;;;;;;5092394;28;20080;-67
2023/12/08 06:34:42;;;;;;;16.30;7.68;;;4.60;99.90;;;;;;5091042;28;20100;-67
2023/12/08 06:37:07;;;;;;;20.55;7.88;;;4.60;99.90;;;;;;5091923;28;20050;-67
2023/12/08 06:39:33;;;;;;;19.30;8.07;;;4.60;99.90;;;;;;5092124;28;20040;-67
2023/12/08 06:41:58;;;;;;;18.67;7.53;;;4.60;99.90;;;;;;5092292;28;20054;-67
2023/12/08 06:44:24;;;;;;;21.52;8.27;;;4.70;99.90;;;;;;5092291;28;20036;-67
2023/12/08 06:46:49;;;;;;;18.23;7.97;;;4.70;99.90;;;;;;5092294;28;20021;-67
2023/12/08 06:49:15;;;;;;;16.98;7.82;;;4.70;99.90;;;;;;5092125;28;20033;-67
2023/12/08 06:51:41;;;;;;;19.15;8.23;;;4.70;99.90;;;;;;5092105;28;20099;-67
2023/12/08 06:54:06;;;;;;;18.88;8.13;;;4.70;99.90;;;;;;5092115;28;20446;-67
2023/12/08 06:56:32;;;;;;;15.85;8.02;;;4.80;99.90;;;;;;5092238;28;20027;-67
2023/12/08 06:58:57;;;;;;;17.80;8.40;;;4.80;99.90;;;;;;5091879;28;20029;-67
2023/12/08 07:01:23;;;;;;;15.57;8.35;;;4.80;99.90;;;;;;5092167;28;20059;-67
2023/12/08 07:03:49;;;;;;;17.42;8.10;;;4.80;99.90;;;;;;5092032;28;20029;-67
2023/12/08 07:06:15;;;;;;;22.13;8.10;;;4.80;99.90;;;;;;5091886;28;20028;-67
2023/12/08 07:08:40;;;;;;;17.75;7.68;;;4.80;99.90;;;;;;5091916;28;20075;-67
2023/12/08 07:11:07;;;;;;;20.38;7.95;;;4.80;99.90;;;;;;5091993;28;20029;-67
2023/12/08 07:13:32;;;;;;;16.40;8.05;;;4.80;99.90;;;;;;5091915;28;20057;-67
2023/12/08 07:15:58;;;;;;;18.60;7.70;;;4.90;99.90;;;;;;5091492;28;20028;-66
2023/12/08 07:18:24;;;;;;;17.77;8.57;;;4.90;99.90;;;;;;5091862;28;20151;-67
2023/12/08 07:20:50;;;;;;;17.42;7.80;;;4.90;99.90;;;;;;5091690;28;20049;-67
2023/12/08 07:23:16;;;;;;;17.75;8.35;;;4.90;99.90;;;;;;5106147;28;20024;-67
2023/12/08 07:25:41;;;;;;;18.25;7.60;;;5.00;99.90;;;;;;5110107;28;20086;-67
2023/12/08 07:28:07;;;;;;;17.08;7.82;;;5.00;99.90;;;;;;5109671;28;20025;-67
2023/12/08 07:30:32;;;;;;;17.23;8.93;;;5.00;99.90;;;;;;5110520;28;20095;-67
2023/12/08 07:32:58;;;;;;;19.33;7.65;;;5.00;99.90;;;;;;5110120;28;20044;-67
2023/12/08 07:35:24;;;;;;;18.17;8.25;;;5.00;99.90;;;;;;5110510;28;20046;-67
2023/12/08 07:37:49;;;;;;;18.92;7.80;;;5.00;99.90;;;;;;5110842;28;20423;-67
2023/12/08 07:40:15;;;;;;;19.05;8.07;;;5.00;99.90;;;;;;5112737;28;20035;-67
2023/12/08 07:42:42;;;;;;;18.58;8.18;;;5.10;99.90;;;;;;5115732;28;20031;-66
2023/12/08 07:45:08;;;;;;;20.67;8.35;;;5.10;99.90;;;;;;5115793;28;20029;-67
2023/12/08 07:47:34;;;;;;;19.60;8.75;;;5.10;99.90;;;;;;5115619;28;20031;-67
2023/12/08 07:50:00;;;;;;;19.25;8.48;;;5.10;99.90;;;;;;5115466;28;20501;-67
2023/12/08 07:52:26;;;;;;;22.70;9.23;;;5.10;99.90;;;;;;5115528;28;20027;-67
2023/12/08 07:54:51;;;;;;;23.48;9.13;;;5.10;99.90;;;;;;5115534;28;20012;-67
2023/12/08 07:57:18;;;;;;;19.80;8.50;;;5.10;99.90;;;;;;5115543;28;20051;-67
2023/12/08 07:59:44;;;;;;;23.05;9.38;;;5.20;99.90;;;;;;5115137;28;20031;-67
2023/12/08 08:02:10;;;;;;;26.27;10.15;;;5.20;99.90;;;;;;5115287;28;20474;-67
2023/12/08 08:04:35;;;;;;;22.83;8.95;;;5.20;99.90;;;;;;5115025;28;20032;-67
2023/12/08 08:07:01;;;;;;;24.17;9.15;;;5.20;99.90;;;;;;5115304;28;20024;-67
2023/12/08 08:09:26;;;;;;;21.88;9.07;;;5.20;99.90;;;;;;5115063;28;20048;-67
2023/12/08 08:11:52;;;;;;;23.38;10.02;;;5.20;99.90;;;;;;5115087;28;20032;-67
2023/12/08 08:14:20;;;;;;;20.88;8.82;;;5.20;99.90;;;;;;5115121;28;20080;-66
2023/12/08 08:16:47;;;;;;;20.10;8.50;;;5.20;99.90;;;;;;5115070;28;20044;-67
2023/12/08 08:19:13;;;;;;;20.67;9.50;;;5.30;99.90;;;;;;5112628;28;20024;-67
2023/12/08 08:21:38;;;;;;;19.70;8.25;;;5.30;99.90;;;;;;5102895;28;20024;-67
2023/12/08 08:24:04;;;;;;;19.80;9.38;;;5.30;99.90;;;;;;5105922;28;20060;-67
2023/12/08 08:26:30;;;;;;;22.73;8.90;;;5.30;99.90;;;;;;5094428;28;20052;-67
2023/12/08 08:28:56;;;;;;;16.80;7.70;;;5.30;99.90;;;;;;5094058;28;20029;-66
2023/12/08 08:31:21;;;;;;;22.23;8.70;;;5.40;99.90;;;;;;5094473;28;20033;-66
2023/12/08 08:33:47;;;;;;;19.27;8.30;;;5.40;99.90;;;;;;5094309;28;20035;-67
2023/12/08 08:36:13;;;;;;;19.52;8.38;;;5.40;99.90;;;;;;5092873;28;20051;-66
2023/12/08 08:38:38;;;;;;;21.15;8.20;;;5.40;99.90;;;;;;5094238;28;20028;-67
2023/12/08 08:41:04;;;;;;;21.00;8.68;;;5.40;99.90;;;;;;5094348;28;20058;-67
2023/12/08 08:43:30;;;;;;;18.48;8.30;;;5.40;99.90;;;;;;5094394;28;20021;-67
2023/12/08 08:45:55;;;;;;;20.17;8.82;;;5.40;99.90;;;;;;5093687;28;20040;-66
2023/12/08 08:48:21;;;;;;;17.80;7.97;;;5.40;99.90;;;;;;5093617;28;20028;-66
2023/12/08 08:50:48;;;;;;;17.50;8.38;;;5.50;99.90;;;;;;5093786;28;20089;-67
2023/12/08 08:53:14;;;;;;;22.33;8.50;;;5.50;99.90;;;;;;5093982;28;20023;-67
2023/12/08 08:55:40;;;;;;;20.60;9.48;;;5.50;99.90;;;;;;5093041;28;20020;-67
2023/12/08 08:58:05;;;;;;;23.15;8.90;;;5.50;99.90;;;;;;5092900;28;20036;-67
2023/12/08 09:00:31;;;;;;;19.35;8.80;;;5.50;99.90;;;;;;5093709;28;20047;-67
2023/12/08 09:02:57;;;;;;;17.30;8.27;;;5.50;99.90;;;;;;5093774;28;20032;-66
2023/12/08 09:05:23;;;;;;;19.17;8.40;;;5.60;99.90;;;;;;5093758;28;20037;-67
2023/12/08 09:07:50;;;;;;;23.63;9.48;;;5.60;99.90;;;;;;5093710;28;20092;-66
2023/12/08 09:10:15;;;;;;;29.40;10.77;;;5.60;99.90;;;;;;5093551;28;20055;-67
2023/12/08 09:12:41;;;;;;;19.80;8.63;;;5.60;99.90;;;;;;5093614;28;20017;-67
2023/12/08 09:15:08;;;;;;;21.15;8.63;;;5.60;99.90;;;;;;5093553;28;20036;-66
2023/12/08 09:17:33;;;;;;;24.23;9.23;;;5.60;99.90;;;;;;5093407;28;20085;-66
2023/12/08 09:19:59;;;;;;;23.73;9.60;;;5.60;99.90;;;;;;5093401;28;20033;-66
2023/12/08 09:22:25;;;;;;;24.80;9.77;;;5.70;99.90;;;;;;5093455;28;20035;-67
2023/12/08 09:24:50;;;;;;;22.85;9.38;;;5.70;99.90;;;;;;5093412;28;20025;-67
2023/12/08 09:27:16;;;;;;;26.20;9.88;;;5.70;99.90;;;;;;5093348;28;20099;-67
2023/12/08 09:29:42;;;;;;;24.30;9.40;;;5.70;99.90;;;;;;5092829;28;20033;-67
2023/12/08 09:32:07;;;;;;;26.95;9.85;;;5.80;99.90;;;;;;5093083;28;20032;-67
2023/12/08 09:34:33;;;;;;;22.33;9.73;;;5.80;99.90;;;;;;5092967;28;20055;-67
2023/12/08 09:36:59;;;;;;;31.35;11.27;;;5.80;99.90;;;;;;5093150;28;20064;-67
2023/12/08 09:39:25;;;;;;;20.50;9.15;;;5.80;99.90;;;;;;5093047;28;20021;-67
2023/12/08 09:41:54;;;;;;;26.00;9.30;;;5.90;99.90;;;;;;5093051;28;20039;-67
2023/12/08 09:44:21;;;;;;;30.13;9.93;;;5.90;99.90;;;;;;5092894;28;20050;-67
2023/12/08 09:46:54;;;;;;;24.77;10.20;;;6.00;99.90;;;;;;5092929;28;20028;-67
2023/12/08 09:49:29;;;;;;;22.42;9.23;;;6.00;99.90;;;;;;5092884;28;20155;-67
2023/12/08 09:51:55;;;;;;;23.13;9.77;;;6.00;99.90;;;;;;5092919;28;20048;-66
2023/12/08 09:54:22;;;;;;;25.83;10.18;;;6.10;99.90;;;;;;5092925;28;20054;-67
2023/12/08 09:56:52;;;;;;;29.10;10.80;;;6.10;99.90;;;;;;5092847;28;20047;-66
2023/12/08 09:59:25;;;;;;;30.92;11.15;;;6.10;99.90;;;;;;5092487;28;20016;-66
2023/12/08 10:01:51;;;;;;;25.10;10.27;;;6.10;99.90;;;;;;5092750;28;20009;-66
2023/12/08 10:04:17;;;;;;;28.63;10.05;;;6.20;99.90;;;;;;5092228;28;20093;-66
2023/12/08 10:06:43;;;;;;;26.05;10.85;;;6.20;99.90;;;;;;5092680;28;20028;-66
2023/12/08 10:09:11;;;;;;;29.27;11.07;;;6.30;99.90;;;;;;5092565;28;20499;-66
2023/12/08 10:11:38;;;;;;;29.73;10.93;;;6.30;99.90;;;;;;5092551;28;20017;-66
2023/12/08 10:14:05;;;;;;;31.42;10.48;;;6.30;99.90;;;;;;5092554;28;20017;-67
2023/12/08 10:16:31;;;;;;;30.27;12.05;;;6.30;99.90;;;;;;5092586;28;20016;-66
2023/12/08 10:19:07;;;;;;;25.30;10.75;;;6.30;99.90;;;;;;5092548;28;20036;-66
2023/12/08 10:21:36;;;;;;;26.90;11.63;;;6.40;99.90;;;;;;5092463;28;20154;-66
2023/12/08 10:24:04;;;;;;;33.33;11.38;;;6.50;99.90;;;;;;5092393;28;20032;-67
2023/12/08 10:26:31;;;;;;;35.65;11.88;;;6.50;99.90;;;;;;5092418;28;20043;-67
2023/12/08 10:28:58;;;;;;;33.92;11.13;;;6.60;99.90;;;;;;5092142;28;20032;-66
2023/12/08 10:31:25;;;;;;;30.67;11.73;;;6.60;99.90;;;;;;5092372;28;20021;-67
2023/12/08 10:33:51;;;;;;;32.38;11.40;;;6.60;99.90;;;;;;5092373;28;20023;-67
2023/12/08 10:36:18;;;;;;;26.63;11.30;;;6.70;99.90;;;;;;5092111;28;20049;-67
2023/12/08 10:38:44;;;;;;;35.10;11.93;;;6.80;99.90;;;;;;5092237;28;20058;-67
2023/12/08 10:41:10;;;;;;;24.83;10.65;;;6.80;99.90;;;;;;5092334;28;20021;-67
2023/12/08 10:43:39;;;;;;;37.20;11.63;;;6.90;99.90;;;;;;5092315;28;20025;-67
2023/12/08 10:46:06;;;;;;;29.55;11.00;;;6.90;99.90;;;;;;5092393;28;20040;-67
2023/12/08 10:48:33;;;;;;;32.97;11.00;;;7.00;99.90;;;;;;5092178;28;20021;-67
2023/12/08 10:50:59;;;;;;;28.73;11.18;;;7.00;99.90;;;;;;5092194;28;20017;-67
2023/12/08 10:53:25;;;;;;;36.40;11.15;;;7.10;99.90;;;;;;5092126;28;20048;-67
2023/12/08 10:56:05;;;;;;;32.35;12.15;;;7.20;99.90;;;;;;5092151;28;20085;-67
2023/12/08 10:58:34;;;;;;;30.05;11.32;;;7.20;99.90;;;;;;5092151;28;20029;-67
2023/12/08 11:01:08;;;;;;;34.85;12.00;;;7.30;99.90;;;;;;5091961;28;20017;-67
2023/12/08 11:03:39;;;;;;;29.33;10.68;;;7.40;99.90;;;;;;5092051;28;20080;-67
2023/12/08 11:06:30;;;;;;;39.58;11.52;;;7.40;99.90;;;;;;5092069;28;20054;-67
2023/12/08 11:09:01;;;;;;;28.60;10.60;;;7.50;99.90;;;;;;5092011;28;20027;-67
2023/12/08 11:11:29;;;;;;;38.03;11.15;;;7.50;99.90;;;;;;5091986;28;20087;-67
2023/12/08 11:14:13;;;;;;;28.25;11.82;;;7.50;99.90;;;;;;5092108;28;20025;-67
2023/12/08 11:17:00;;;;;;;30.52;10.60;;;7.60;99.90;;;;;;5095609;28;20040;-68
2023/12/08 11:19:26;;;;;;;24.40;9.68;;;7.60;99.90;;;;;;5095802;28;20024;-67
2023/12/08 11:21:53;;;;;;;29.42;10.57;;;7.70;99.90;;;;;;5095670;28;20054;-67
2023/12/08 11:24:19;;;;;;;29.83;11.07;;;7.70;99.90;;;;;;5095759;28;20081;-67
2023/12/08 11:27:11;;;;;;;28.15;9.95;;;7.80;99.90;;;;;;5095599;28;20028;-67
2023/12/08 11:29:46;;;;;;;31.52;9.57;;;7.80;99.90;;;;;;5095422;28;20020;-67
2023/12/08 11:32:20;;;;;;;27.63;9.88;;;7.80;99.90;;;;;;5095601;28;20088;-67
2023/12/08 11:34:55;;;;;;;31.88;10.05;;;7.90;99.90;;;;;;5095231;28;20044;-67
2023/12/08 11:37:22;;;;;;;27.95;9.00;;;7.90;99.90;;;;;;5095471;28;20020;-67
2023/12/08 11:39:47;;;;;;;28.60;10.52;;;7.90;99.90;;;;;;5095246;28;20283;-67
2023/12/08 11:42:16;;;;;;;29.95;10.82;;;7.90;99.90;;;;;;5095303;28;20490;-67
2023/12/08 11:44:46;;;;;;;28.08;9.77;;;8.00;99.90;;;;;;5095271;28;20021;-67
2023/12/08 11:47:14;;;;;;;26.52;9.98;;;8.00;99.90;;;;;;5095232;28;20078;-67
2023/12/08 11:49:43;;;;;;;30.77;9.98;;;8.00;99.90;;;;;;5094982;28;20021;-67
2023/12/08 11:52:14;;;;;;;29.85;10.02;;;8.10;99.90;;;;;;5095215;28;20076;-67
2023/12/08 11:55:06;;;;;;;28.98;10.57;;;8.10;99.90;;;;;;5095146;28;20029;-67
2023/12/08 11:57:33;;;;;;;30.20;9.45;;;8.10;99.90;;;;;;5095125;28;20036;-67
2023/12/08 11:59:59;;;;;;;30.42;9.45;;;8.10;99.90;;;;;;5094790;28;20016;-67
2023/12/08 12:02:26;;;;;;;28.52;9.75;;;8.10;99.90;;;;;;5095081;28;20033;-67
2023/12/08 12:04:51;;;;;;;24.33;9.27;;;8.10;99.90;;;;;;5094976;28;20069;-67
2023/12/08 12:07:21;;;;;;;28.27;9.23;;;8.20;99.90;;;;;;5095018;28;20028;-67
2023/12/08 12:09:50;;;;;;;29.25;9.65;;;8.20;99.90;;;;;;5094720;28;20029;-67
2023/12/08 12:12:29;;;;;;;29.80;10.02;;;8.20;99.90;;;;;;5094805;28;20021;-67
2023/12/08 12:14:56;;;;;;;30.38;10.20;;;8.30;99.90;;;;;;5094752;28;20025;-67
2023/12/08 12:17:25;;;;;;;27.52;10.27;;;8.30;99.90;;;;;;5094733;28;20066;-67
2023/12/08 12:19:52;;;;;;;34.17;9.40;;;8.30;99.90;;;;;;5094635;28;20098;-67
2023/12/08 12:22:18;;;;;;;29.40;10.07;;;8.30;99.90;;;;;;5094669;28;20118;-67
2023/12/08 12:24:44;;;;;;;29.80;9.85;;;8.30;99.90;;;;;;5094584;28;20124;-67
2023/12/08 12:27:10;;;;;;;28.60;11.13;;;8.30;99.90;;;;;;5093906;28;20025;-67
2023/12/08 12:29:36;;;;;;;34.00;10.85;;;8.40;99.90;;;;;;5094253;28;20060;-67
2023/12/08 12:32:07;;;;;;;26.80;8.68;;;8.40;99.90;;;;;;5094518;28;20025;-67
2023/12/08 12:34:37;;;;;;;30.95;10.40;;;8.40;99.90;;;;;;5094244;28;20514;-67
2023/12/08 12:37:04;;;;;;;29.25;10.93;;;8.40;99.90;;;;;;5094437;28;20083;-66
2023/12/08 12:39:30;;;;;;;29.55;9.85;;;8.40;99.90;;;;;;5094316;28;20020;-67
2023/12/08 12:42:00;;;;;;;33.40;10.85;;;8.50;99.90;;;;;;5094213;28;20051;-67